New Market, Maryland
Current Conditions -  °F | °C
As of 12:45 PM on Wednesday 26 Nov 2014 (Local Time) from KFDK Reporting Station
Light Snow Light Snow  
Wind Chill: 32°   Ceiling: 300
Heat Index: 36°   Visibility: 2mi
Dew Point: 30°   Wind: 5mph
Humidity: 81%   Direction: NA
Pressure: 30.02"   Gusts: NA
Location:  39.38°N, 77.27°W
Report Text: KFDK 261745Z VRB04KT 2SM -SN OVC003 02/M01 A3002
Loading
Personal Weather Stations






























Interactive Weather Map New forecast layout! Learn more

10-Day Weather Forecast

Advertisements
Track Severe Weather on mobile